sensor_id;sensor_type;location;lat;lon;timestamp;temperature;humidity
16643;DHT22;8435;52.184;5.406;2023-05-24T00:00:28;13.10;94.00
16643;DHT22;8435;52.184;5.406;2023-05-24T00:02:55;13.10;94.10
16643;DHT22;8435;52.184;5.406;2023-05-24T00:05:22;13.10;94.20
16643;DHT22;8435;52.184;5.406;2023-05-24T00:07:57;13.10;94.20
16643;DHT22;8435;52.184;5.406;2023-05-24T00:10:24;13.10;94.30
16643;DHT22;8435;52.184;5.406;2023-05-24T00:12:51;13.00;94.30
16643;DHT22;8435;52.184;5.406;2023-05-24T00:15:18;13.00;94.30
16643;DHT22;8435;52.184;5.406;2023-05-24T00:17:51;13.00;94.30
16643;DHT22;8435;52.184;5.406;2023-05-24T00:20:18;13.00;94.30
16643;DHT22;8435;52.184;5.406;2023-05-24T00:22:45;12.90;94.40
16643;DHT22;8435;52.184;5.406;2023-05-24T00:25:13;12.90;94.40
16643;DHT22;8435;52.184;5.406;2023-05-24T00:27:40;12.90;94.50
16643;DHT22;8435;52.184;5.406;2023-05-24T00:30:07;12.90;94.50
16643;DHT22;8435;52.184;5.406;2023-05-24T00:32:34;12.90;94.60
16643;DHT22;8435;52.184;5.406;2023-05-24T00:35:00;12.90;94.60
16643;DHT22;8435;52.184;5.406;2023-05-24T00:37:27;12.80;94.60
16643;DHT22;8435;52.184;5.406;2023-05-24T00:39:54;12.80;94.60
16643;DHT22;8435;52.184;5.406;2023-05-24T00:42:23;12.80;94.70
16643;DHT22;8435;52.184;5.406;2023-05-24T00:44:50;12.80;94.70
16643;DHT22;8435;52.184;5.406;2023-05-24T00:47:16;12.70;94.70
16643;DHT22;8435;52.184;5.406;2023-05-24T00:49:43;12.80;94.80
16643;DHT22;8435;52.184;5.406;2023-05-24T00:52:10;12.70;94.80
16643;DHT22;8435;52.184;5.406;2023-05-24T00:54:37;12.70;95.20
16643;DHT22;8435;52.184;5.406;2023-05-24T00:57:07;12.60;94.90
16643;DHT22;8435;52.184;5.406;2023-05-24T00:59:38;12.60;95.00
16643;DHT22;8435;52.184;5.406;2023-05-24T01:02:06;12.60;95.20
16643;DHT22;8435;52.184;5.406;2023-05-24T01:04:32;12.60;95.00
16643;DHT22;8435;52.184;5.406;2023-05-24T01:07:08;12.60;95.10
16643;DHT22;8435;52.184;5.406;2023-05-24T01:09:49;12.60;95.30
16643;DHT22;8435;52.184;5.406;2023-05-24T01:12:27;12.50;95.40
16643;DHT22;8435;52.184;5.406;2023-05-24T01:15:06;12.50;95.40
16643;DHT22;8435;52.184;5.406;2023-05-24T01:17:39;12.50;95.40
16643;DHT22;8435;52.184;5.406;2023-05-24T01:20:12;12.50;95.40
16643;DHT22;8435;52.184;5.406;2023-05-24T01:23:04;12.50;95.40
16643;DHT22;8435;52.184;5.406;2023-05-24T01:25:44;12.40;95.80
16643;DHT22;8435;52.184;5.406;2023-05-24T01:28:17;12.40;95.60
16643;DHT22;8435;52.184;5.406;2023-05-24T01:30:44;12.40;95.50
16643;DHT22;8435;52.184;5.406;2023-05-24T01:33:12;12.40;95.50
16643;DHT22;8435;52.184;5.406;2023-05-24T01:35:38;12.40;95.60
16643;DHT22;8435;52.184;5.406;2023-05-24T01:38:07;12.30;95.60
16643;DHT22;8435;52.184;5.406;2023-05-24T01:40:34;12.30;95.60
16643;DHT22;8435;52.184;5.406;2023-05-24T01:43:13;12.30;95.70
16643;DHT22;8435;52.184;5.406;2023-05-24T01:45:48;12.30;96.00
16643;DHT22;8435;52.184;5.406;2023-05-24T01:48:23;12.30;96.00
16643;DHT22;8435;52.184;5.406;2023-05-24T01:50:56;12.30;95.80
16643;DHT22;8435;52.184;5.406;2023-05-24T01:53:25;12.30;95.90
16643;DHT22;8435;52.184;5.406;2023-05-24T01:55:53;12.30;96.00
16643;DHT22;8435;52.184;5.406;2023-05-24T01:58:22;12.30;96.00
16643;DHT22;8435;52.184;5.406;2023-05-24T02:00:53;12.30;96.10
16643;DHT22;8435;52.184;5.406;2023-05-24T02:03:20;12.20;96.20
16643;DHT22;8435;52.184;5.406;2023-05-24T02:05:47;12.30;96.30
16643;DHT22;8435;52.184;5.406;2023-05-24T02:08:14;12.30;96.40
16643;DHT22;8435;52.184;5.406;2023-05-24T02:10:41;12.20;96.50
16643;DHT22;8435;52.184;5.406;2023-05-24T02:13:08;12.20;96.60
16643;DHT22;8435;52.184;5.406;2023-05-24T02:15:35;12.30;96.70
16643;DHT22;8435;52.184;5.406;2023-05-24T02:18:03;12.30;96.80
16643;DHT22;8435;52.184;5.406;2023-05-24T02:20:32;12.30;96.90
16643;DHT22;8435;52.184;5.406;2023-05-24T02:23:03;12.30;96.90
16643;DHT22;8435;52.184;5.406;2023-05-24T02:25:32;12.30;97.00
16643;DHT22;8435;52.184;5.406;2023-05-24T02:27:59;12.40;97.00
16643;DHT22;8435;52.184;5.406;2023-05-24T02:30:28;12.40;97.10
16643;DHT22;8435;52.184;5.406;2023-05-24T02:32:55;12.40;97.10
16643;DHT22;8435;52.184;5.406;2023-05-24T02:35:23;12.40;97.10
16643;DHT22;8435;52.184;5.406;2023-05-24T02:37:50;12.40;97.20
16643;DHT22;8435;52.184;5.406;2023-05-24T02:40:17;12.40;97.20
16643;DHT22;8435;52.184;5.406;2023-05-24T02:42:43;12.40;97.20
16643;DHT22;8435;52.184;5.406;2023-05-24T02:45:10;12.40;97.20
16643;DHT22;8435;52.184;5.406;2023-05-24T02:47:37;12.50;97.20
16643;DHT22;8435;52.184;5.406;2023-05-24T02:50:05;12.50;97.30
16643;DHT22;8435;52.184;5.406;2023-05-24T02:52:36;12.50;97.30
16643;DHT22;8435;52.184;5.406;2023-05-24T02:55:03;12.50;97.40
16643;DHT22;8435;52.184;5.406;2023-05-24T02:57:30;12.50;97.30
16643;DHT22;8435;52.184;5.406;2023-05-24T02:59:59;12.50;97.30
16643;DHT22;8435;52.184;5.406;2023-05-24T03:02:26;12.50;97.30
16643;DHT22;8435;52.184;5.406;2023-05-24T03:04:53;12.50;97.30
16643;DHT22;8435;52.184;5.406;2023-05-24T03:07:20;12.50;97.30
16643;DHT22;8435;52.184;5.406;2023-05-24T03:09:48;12.60;97.30
16643;DHT22;8435;52.184;5.406;2023-05-24T03:12:15;12.50;97.30
16643;DHT22;8435;52.184;5.406;2023-05-24T03:14:42;12.50;97.30
16643;DHT22;8435;52.184;5.406;2023-05-24T03:17:10;12.50;97.20
16643;DHT22;8435;52.184;5.406;2023-05-24T03:19:37;12.50;97.30
16643;DHT22;8435;52.184;5.406;2023-05-24T03:22:04;12.50;97.20
16643;DHT22;8435;52.184;5.406;2023-05-24T03:24:31;12.50;97.20
16643;DHT22;8435;52.184;5.406;2023-05-24T03:27:00;12.50;97.20
16643;DHT22;8435;52.184;5.406;2023-05-24T03:29:30;12.50;97.30
16643;DHT22;8435;52.184;5.406;2023-05-24T03:31:56;12.50;97.30
16643;DHT22;8435;52.184;5.406;2023-05-24T03:34:23;12.50;97.20
16643;DHT22;8435;52.184;5.406;2023-05-24T03:36:50;12.50;97.20
16643;DHT22;8435;52.184;5.406;2023-05-24T03:39:17;12.40;97.20
16643;DHT22;8435;52.184;5.406;2023-05-24T03:41:44;12.40;97.30
16643;DHT22;8435;52.184;5.406;2023-05-24T03:44:12;12.40;97.30
16643;DHT22;8435;52.184;5.406;2023-05-24T03:46:38;12.40;97.30
16643;DHT22;8435;52.184;5.406;2023-05-24T03:49:08;12.40;97.30
16643;DHT22;8435;52.184;5.406;2023-05-24T03:51:35;12.40;97.40
16643;DHT22;8435;52.184;5.406;2023-05-24T03:54:02;12.30;97.30
16643;DHT22;8435;52.184;5.406;2023-05-24T03:56:29;12.30;97.30
16643;DHT22;8435;52.184;5.406;2023-05-24T03:58:56;12.30;97.30
16643;DHT22;8435;52.184;5.406;2023-05-24T04:01:26;12.30;97.40
16643;DHT22;8435;52.184;5.406;2023-05-24T04:03:55;12.20;97.40
16643;DHT22;8435;52.184;5.406;2023-05-24T04:06:22;12.20;97.40
16643;DHT22;8435;52.184;5.406;2023-05-24T04:08:53;12.20;97.50
16643;DHT22;8435;52.184;5.406;2023-05-24T04:11:20;12.20;97.50
16643;DHT22;8435;52.184;5.406;2023-05-24T04:13:48;12.20;97.60
16643;DHT22;8435;52.184;5.406;2023-05-24T04:16:15;12.20;97.90
16643;DHT22;8435;52.184;5.406;2023-05-24T04:18:49;12.20;97.60
16643;DHT22;8435;52.184;5.406;2023-05-24T04:21:19;12.30;97.80
16643;DHT22;8435;52.184;5.406;2023-05-24T04:23:46;12.20;97.60
16643;DHT22;8435;52.184;5.406;2023-05-24T04:26:13;12.30;97.70
16643;DHT22;8435;52.184;5.406;2023-05-24T04:28:42;12.30;98.00
16643;DHT22;8435;52.184;5.406;2023-05-24T04:31:10;12.30;97.70
16643;DHT22;8435;52.184;5.406;2023-05-24T04:33:37;12.30;97.80
16643;DHT22;8435;52.184;5.406;2023-05-24T04:36:05;12.30;97.80
16643;DHT22;8435;52.184;5.406;2023-05-24T04:38:32;12.40;97.90
16643;DHT22;8435;52.184;5.406;2023-05-24T04:41:00;12.40;97.80
16643;DHT22;8435;52.184;5.406;2023-05-24T04:43:27;12.40;97.90
16643;DHT22;8435;52.184;5.406;2023-05-24T04:45:54;12.40;98.00
16643;DHT22;8435;52.184;5.406;2023-05-24T04:48:21;12.50;98.10
16643;DHT22;8435;52.184;5.406;2023-05-24T04:50:50;12.50;98.20
16643;DHT22;8435;52.184;5.406;2023-05-24T04:53:19;12.60;98.30
16643;DHT22;8435;52.184;5.406;2023-05-24T04:55:46;12.70;98.30
16643;DHT22;8435;52.184;5.406;2023-05-24T04:58:12;12.80;98.20
16643;DHT22;8435;52.184;5.406;2023-05-24T05:00:40;12.80;98.10
16643;DHT22;8435;52.184;5.406;2023-05-24T05:03:07;12.90;98.00
16643;DHT22;8435;52.184;5.406;2023-05-24T05:05:34;13.00;98.00
16643;DHT22;8435;52.184;5.406;2023-05-24T05:08:05;13.00;97.90
16643;DHT22;8435;52.184;5.406;2023-05-24T05:10:34;13.00;98.00
16643;DHT22;8435;52.184;5.406;2023-05-24T05:13:01;13.00;98.00
16643;DHT22;8435;52.184;5.406;2023-05-24T05:15:29;13.10;98.00
16643;DHT22;8435;52.184;5.406;2023-05-24T05:17:55;13.10;97.90
16643;DHT22;8435;52.184;5.406;2023-05-24T05:20:23;13.20;97.90
16643;DHT22;8435;52.184;5.406;2023-05-24T05:22:50;13.20;97.90
16643;DHT22;8435;52.184;5.406;2023-05-24T05:25:17;13.20;97.90
16643;DHT22;8435;52.184;5.406;2023-05-24T05:27:45;13.20;97.90
16643;DHT22;8435;52.184;5.406;2023-05-24T05:30:14;13.30;98.00
16643;DHT22;8435;52.184;5.406;2023-05-24T05:32:41;13.30;98.00
16643;DHT22;8435;52.184;5.406;2023-05-24T05:35:10;13.40;98.10
16643;DHT22;8435;52.184;5.406;2023-05-24T05:37:37;13.50;98.20
16643;DHT22;8435;52.184;5.406;2023-05-24T05:40:04;13.50;98.30
16643;DHT22;8435;52.184;5.406;2023-05-24T05:42:31;13.60;98.40
16643;DHT22;8435;52.184;5.406;2023-05-24T05:44:59;13.80;98.40
16643;DHT22;8435;52.184;5.406;2023-05-24T05:47:26;14.00;98.50
16643;DHT22;8435;52.184;5.406;2023-05-24T05:49:53;14.20;98.30
16643;DHT22;8435;52.184;5.406;2023-05-24T05:52:20;14.40;98.00
16643;DHT22;8435;52.184;5.406;2023-05-24T05:54:47;14.50;97.70
16643;DHT22;8435;52.184;5.406;2023-05-24T05:57:13;14.70;97.50
16643;DHT22;8435;52.184;5.406;2023-05-24T05:59:40;14.70;97.30
16643;DHT22;8435;52.184;5.406;2023-05-24T06:02:08;14.80;97.10
16643;DHT22;8435;52.184;5.406;2023-05-24T06:04:37;14.90;97.20
16643;DHT22;8435;52.184;5.406;2023-05-24T06:07:04;15.00;97.10
16643;DHT22;8435;52.184;5.406;2023-05-24T06:09:31;15.10;96.90
16643;DHT22;8435;52.184;5.406;2023-05-24T06:11:58;15.10;96.70
16643;DHT22;8435;52.184;5.406;2023-05-24T06:14:24;15.10;96.60
16643;DHT22;8435;52.184;5.406;2023-05-24T06:16:52;15.10;96.50
16643;DHT22;8435;52.184;5.406;2023-05-24T06:19:26;14.80;96.40
16643;DHT22;8435;52.184;5.406;2023-05-24T06:21:58;15.20;96.50
16643;DHT22;8435;52.184;5.406;2023-05-24T06:24:25;15.20;96.50
16643;DHT22;8435;52.184;5.406;2023-05-24T06:26:55;15.20;96.40
16643;DHT22;8435;52.184;5.406;2023-05-24T06:29:22;15.20;96.30
16643;DHT22;8435;52.184;5.406;2023-05-24T06:31:50;15.30;96.40
16643;DHT22;8435;52.184;5.406;2023-05-24T06:34:21;15.30;96.60
16643;DHT22;8435;52.184;5.406;2023-05-24T06:36:49;15.50;96.90
16643;DHT22;8435;52.184;5.406;2023-05-24T06:39:17;15.70;97.20
16643;DHT22;8435;52.184;5.406;2023-05-24T06:41:44;16.00;96.80
16643;DHT22;8435;52.184;5.406;2023-05-24T06:44:11;16.30;96.50
16643;DHT22;8435;52.184;5.406;2023-05-24T06:46:42;16.60;96.00
16643;DHT22;8435;52.184;5.406;2023-05-24T06:49:08;16.90;95.80
16643;DHT22;8435;52.184;5.406;2023-05-24T06:51:35;17.00;94.90
16643;DHT22;8435;52.184;5.406;2023-05-24T06:54:04;17.10;94.50
16643;DHT22;8435;52.184;5.406;2023-05-24T06:56:31;17.10;94.20
16643;DHT22;8435;52.184;5.406;2023-05-24T06:58:58;17.10;94.10
16643;DHT22;8435;52.184;5.406;2023-05-24T07:01:27;17.10;94.00
16643;DHT22;8435;52.184;5.406;2023-05-24T07:03:54;17.00;94.10
16643;DHT22;8435;52.184;5.406;2023-05-24T07:06:21;17.00;94.10
16643;DHT22;8435;52.184;5.406;2023-05-24T07:08:49;17.00;94.20
16643;DHT22;8435;52.184;5.406;2023-05-24T07:11:17;17.00;94.20
16643;DHT22;8435;52.184;5.406;2023-05-24T07:13:46;17.00;94.10
16643;DHT22;8435;52.184;5.406;2023-05-24T07:16:12;17.00;94.00
16643;DHT22;8435;52.184;5.406;2023-05-24T07:18:39;17.00;94.00
16643;DHT22;8435;52.184;5.406;2023-05-24T07:21:06;17.00;94.00
16643;DHT22;8435;52.184;5.406;2023-05-24T07:23:33;17.00;93.90
16643;DHT22;8435;52.184;5.406;2023-05-24T07:26:01;17.00;93.60
16643;DHT22;8435;52.184;5.406;2023-05-24T07:28:31;17.00;93.50
16643;DHT22;8435;52.184;5.406;2023-05-24T07:30:59;17.10;93.60
16643;DHT22;8435;52.184;5.406;2023-05-24T07:33:26;17.10;93.50
16643;DHT22;8435;52.184;5.406;2023-05-24T07:35:53;17.10;93.40
16643;DHT22;8435;52.184;5.406;2023-05-24T07:38:19;17.20;93.80
16643;DHT22;8435;52.184;5.406;2023-05-24T07:40:46;17.30;94.30
16643;DHT22;8435;52.184;5.406;2023-05-24T07:43:13;17.60;95.20
16643;DHT22;8435;52.184;5.406;2023-05-24T07:45:42;18.00;94.90
16643;DHT22;8435;52.184;5.406;2023-05-24T07:48:08;18.40;94.30
16643;DHT22;8435;52.184;5.406;2023-05-24T07:50:37;18.80;93.90
16643;DHT22;8435;52.184;5.406;2023-05-24T07:53:04;19.20;93.00
16643;DHT22;8435;52.184;5.406;2023-05-24T07:55:31;19.50;92.40
16643;DHT22;8435;52.184;5.406;2023-05-24T07:57:58;19.70;91.80
16643;DHT22;8435;52.184;5.406;2023-05-24T08:00:28;19.80;91.00
16643;DHT22;8435;52.184;5.406;2023-05-24T08:02:56;19.80;90.50
16643;DHT22;8435;52.184;5.406;2023-05-24T08:05:23;19.80;90.40
16643;DHT22;8435;52.184;5.406;2023-05-24T08:07:50;19.80;90.20
16643;DHT22;8435;52.184;5.406;2023-05-24T08:10:17;19.70;90.30
16643;DHT22;8435;52.184;5.406;2023-05-24T08:12:44;19.70;90.00
16643;DHT22;8435;52.184;5.406;2023-05-24T08:15:11;19.60;89.40
16643;DHT22;8435;52.184;5.406;2023-05-24T08:17:38;19.60;89.80
16643;DHT22;8435;52.184;5.406;2023-05-24T08:20:07;19.60;90.30
16643;DHT22;8435;52.184;5.406;2023-05-24T08:22:38;19.60;89.70
16643;DHT22;8435;52.184;5.406;2023-05-24T08:25:05;19.60;90.10
16643;DHT22;8435;52.184;5.406;2023-05-24T08:27:32;19.80;90.20
16643;DHT22;8435;52.184;5.406;2023-05-24T08:29:59;19.90;90.40
16643;DHT22;8435;52.184;5.406;2023-05-24T08:32:26;20.10;90.50
16643;DHT22;8435;52.184;5.406;2023-05-24T08:34:52;20.40;90.40
16643;DHT22;8435;52.184;5.406;2023-05-24T08:37:21;20.70;90.00
16643;DHT22;8435;52.184;5.406;2023-05-24T08:39:51;21.10;88.50
16643;DHT22;8435;52.184;5.406;2023-05-24T08:42:19;21.50;87.40
16643;DHT22;8435;52.184;5.406;2023-05-24T08:44:51;21.70;85.00
16643;DHT22;8435;52.184;5.406;2023-05-24T08:47:19;21.90;82.50
16643;DHT22;8435;52.184;5.406;2023-05-24T08:49:49;22.00;82.60
16643;DHT22;8435;52.184;5.406;2023-05-24T08:52:17;22.10;82.80
16643;DHT22;8435;52.184;5.406;2023-05-24T08:54:47;22.20;81.80
16643;DHT22;8435;52.184;5.406;2023-05-24T08:57:14;22.30;80.70
16643;DHT22;8435;52.184;5.406;2023-05-24T08:59:42;22.50;80.80
16643;DHT22;8435;52.184;5.406;2023-05-24T09:02:13;22.70;79.50
16643;DHT22;8435;52.184;5.406;2023-05-24T09:04:41;22.80;79.70
16643;DHT22;8435;52.184;5.406;2023-05-24T09:07:11;23.00;78.10
16643;DHT22;8435;52.184;5.406;2023-05-24T09:09:42;23.10;77.40
16643;DHT22;8435;52.184;5.406;2023-05-24T09:12:14;23.20;75.60
16643;DHT22;8435;52.184;5.406;2023-05-24T09:14:44;23.10;76.60
16643;DHT22;8435;52.184;5.406;2023-05-24T09:17:13;23.20;75.60
16643;DHT22;8435;52.184;5.406;2023-05-24T09:19:43;23.20;75.20
16643;DHT22;8435;52.184;5.406;2023-05-24T09:22:11;23.30;74.50
16643;DHT22;8435;52.184;5.406;2023-05-24T09:24:41;23.50;74.10
16643;DHT22;8435;52.184;5.406;2023-05-24T09:27:08;23.50;72.90
16643;DHT22;8435;52.184;5.406;2023-05-24T09:29:36;23.60;73.20
16643;DHT22;8435;52.184;5.406;2023-05-24T09:32:06;23.50;72.00
16643;DHT22;8435;52.184;5.406;2023-05-24T09:34:37;23.40;72.10
16643;DHT22;8435;52.184;5.406;2023-05-24T09:37:05;23.30;71.00
16643;DHT22;8435;52.184;5.406;2023-05-24T09:39:32;23.20;71.40
16643;DHT22;8435;52.184;5.406;2023-05-24T09:42:00;23.10;71.40
16643;DHT22;8435;52.184;5.406;2023-05-24T09:44:28;22.90;70.90
16643;DHT22;8435;52.184;5.406;2023-05-24T09:47:00;22.80;71.20
16643;DHT22;8435;52.184;5.406;2023-05-24T09:49:28;22.60;71.80
16643;DHT22;8435;52.184;5.406;2023-05-24T09:51:55;22.50;72.60
16643;DHT22;8435;52.184;5.406;2023-05-24T09:54:23;22.40;73.20
16643;DHT22;8435;52.184;5.406;2023-05-24T09:56:51;22.30;73.20
16643;DHT22;8435;52.184;5.406;2023-05-24T09:59:18;22.40;73.30
16643;DHT22;8435;52.184;5.406;2023-05-24T10:01:45;22.40;72.90
16643;DHT22;8435;52.184;5.406;2023-05-24T10:04:13;22.40;73.10
16643;DHT22;8435;52.184;5.406;2023-05-24T10:06:41;22.30;72.90
16643;DHT22;8435;52.184;5.406;2023-05-24T10:09:08;22.30;72.50
16643;DHT22;8435;52.184;5.406;2023-05-24T10:11:35;22.20;73.10
16643;DHT22;8435;52.184;5.406;2023-05-24T10:14:03;22.20;73.30
16643;DHT22;8435;52.184;5.406;2023-05-24T10:16:31;22.10;73.20
16643;DHT22;8435;52.184;5.406;2023-05-24T10:18:58;22.20;73.30
16643;DHT22;8435;52.184;5.406;2023-05-24T10:21:28;22.20;72.30
16643;DHT22;8435;52.184;5.406;2023-05-24T10:23:58;22.20;71.40
16643;DHT22;8435;52.184;5.406;2023-05-24T10:26:30;22.20;71.50
16643;DHT22;8435;52.184;5.406;2023-05-24T10:29:03;22.10;71.00
16643;DHT22;8435;52.184;5.406;2023-05-24T10:31:33;22.00;71.00
16643;DHT22;8435;52.184;5.406;2023-05-24T10:34:02;22.00;71.90
16643;DHT22;8435;52.184;5.406;2023-05-24T10:36:32;21.90;71.90
16643;DHT22;8435;52.184;5.406;2023-05-24T10:38:59;21.90;71.40
16643;DHT22;8435;52.184;5.406;2023-05-24T10:41:28;21.80;71.80
16643;DHT22;8435;52.184;5.406;2023-05-24T10:43:56;21.70;72.00
16643;DHT22;8435;52.184;5.406;2023-05-24T10:46:23;21.70;72.00
16643;DHT22;8435;52.184;5.406;2023-05-24T10:49:00;21.70;72.10
16643;DHT22;8435;52.184;5.406;2023-05-24T10:51:33;21.60;71.60
16643;DHT22;8435;52.184;5.406;2023-05-24T10:54:13;21.60;71.00
16643;DHT22;8435;52.184;5.406;2023-05-24T10:56:43;21.50;71.30
16643;DHT22;8435;52.184;5.406;2023-05-24T10:59:22;21.50;72.30
16643;DHT22;8435;52.184;5.406;2023-05-24T11:01:54;21.50;71.60
16643;DHT22;8435;52.184;5.406;2023-05-24T11:04:21;21.60;71.30
16643;DHT22;8435;52.184;5.406;2023-05-24T11:06:54;21.70;71.60
16643;DHT22;8435;52.184;5.406;2023-05-24T11:09:23;21.70;71.10
16643;DHT22;8435;52.184;5.406;2023-05-24T11:11:55;21.70;71.90
16643;DHT22;8435;52.184;5.406;2023-05-24T11:14:23;21.70;70.30
16643;DHT22;8435;52.184;5.406;2023-05-24T11:16:52;21.70;71.70
16643;DHT22;8435;52.184;5.406;2023-05-24T11:19:21;21.70;71.40
16643;DHT22;8435;52.184;5.406;2023-05-24T11:21:51;21.70;71.30
16643;DHT22;8435;52.184;5.406;2023-05-24T11:24:20;21.70;71.60
16643;DHT22;8435;52.184;5.406;2023-05-24T11:26:49;21.70;71.60
16643;DHT22;8435;52.184;5.406;2023-05-24T11:29:16;21.70;71.20
16643;DHT22;8435;52.184;5.406;2023-05-24T11:31:47;21.60;71.20
16643;DHT22;8435;52.184;5.406;2023-05-24T11:34:15;21.60;72.00
16643;DHT22;8435;52.184;5.406;2023-05-24T11:36:43;21.60;72.30
16643;DHT22;8435;52.184;5.406;2023-05-24T11:39:12;21.60;72.00
16643;DHT22;8435;52.184;5.406;2023-05-24T11:41:39;21.60;71.20
16643;DHT22;8435;52.184;5.406;2023-05-24T11:44:07;21.70;72.80
16643;DHT22;8435;52.184;5.406;2023-05-24T11:46:35;21.70;72.00
16643;DHT22;8435;52.184;5.406;2023-05-24T11:49:03;21.60;71.80
16643;DHT22;8435;52.184;5.406;2023-05-24T11:51:34;21.60;72.40
16643;DHT22;8435;52.184;5.406;2023-05-24T11:54:02;21.70;72.50
16643;DHT22;8435;52.184;5.406;2023-05-24T11:56:31;21.70;72.70
16643;DHT22;8435;52.184;5.406;2023-05-24T11:59:08;21.70;71.50
16643;DHT22;8435;52.184;5.406;2023-05-24T12:01:37;21.70;71.40
16643;DHT22;8435;52.184;5.406;2023-05-24T12:04:05;21.80;72.60
16643;DHT22;8435;52.184;5.406;2023-05-24T12:06:34;21.80;71.60
16643;DHT22;8435;52.184;5.406;2023-05-24T12:09:02;21.80;71.50
16643;DHT22;8435;52.184;5.406;2023-05-24T12:11:34;21.80;71.40
16643;DHT22;8435;52.184;5.406;2023-05-24T12:14:01;21.80;71.20
16643;DHT22;8435;52.184;5.406;2023-05-24T12:16:28;21.70;71.10
16643;DHT22;8435;52.184;5.406;2023-05-24T12:18:57;21.80;71.30
16643;DHT22;8435;52.184;5.406;2023-05-24T12:21:24;21.80;72.00
16643;DHT22;8435;52.184;5.406;2023-05-24T12:23:55;21.90;72.00
16643;DHT22;8435;52.184;5.406;2023-05-24T12:26:25;21.90;72.20
16643;DHT22;8435;52.184;5.406;2023-05-24T12:28:56;22.00;72.50
16643;DHT22;8435;52.184;5.406;2023-05-24T12:31:25;22.10;72.30
16643;DHT22;8435;52.184;5.406;2023-05-24T12:33:52;22.20;72.00
16643;DHT22;8435;52.184;5.406;2023-05-24T12:36:19;22.30;71.50
16643;DHT22;8435;52.184;5.406;2023-05-24T12:38:46;22.40;71.00
16643;DHT22;8435;52.184;5.406;2023-05-24T12:41:12;22.40;71.80
16643;DHT22;8435;52.184;5.406;2023-05-24T12:43:41;22.50;70.80
16643;DHT22;8435;52.184;5.406;2023-05-24T12:46:10;22.50;69.50
16643;DHT22;8435;52.184;5.406;2023-05-24T12:48:37;22.50;69.60
16643;DHT22;8435;52.184;5.406;2023-05-24T12:51:04;22.40;69.20
16643;DHT22;8435;52.184;5.406;2023-05-24T12:53:32;22.50;69.80
16643;DHT22;8435;52.184;5.406;2023-05-24T12:55:59;22.40;70.50
16643;DHT22;8435;52.184;5.406;2023-05-24T12:58:26;22.40;70.20
16643;DHT22;8435;52.184;5.406;2023-05-24T13:00:55;22.40;70.30
16643;DHT22;8435;52.184;5.406;2023-05-24T13:03:23;22.40;69.90
16643;DHT22;8435;52.184;5.406;2023-05-24T13:05:50;22.40;70.00
16643;DHT22;8435;52.184;5.406;2023-05-24T13:08:16;22.40;69.70
16643;DHT22;8435;52.184;5.406;2023-05-24T13:10:43;22.40;69.80
16643;DHT22;8435;52.184;5.406;2023-05-24T13:13:10;22.40;69.60
16643;DHT22;8435;52.184;5.406;2023-05-24T13:15:37;22.40;68.70
16643;DHT22;8435;52.184;5.406;2023-05-24T13:18:06;22.40;68.80
16643;DHT22;8435;52.184;5.406;2023-05-24T13:20:35;22.40;68.80
16643;DHT22;8435;52.184;5.406;2023-05-24T13:23:02;22.30;69.00
16643;DHT22;8435;52.184;5.406;2023-05-24T13:25:29;22.30;69.20
16643;DHT22;8435;52.184;5.406;2023-05-24T13:27:57;22.30;69.40
16643;DHT22;8435;52.184;5.406;2023-05-24T13:30:24;22.20;70.00
16643;DHT22;8435;52.184;5.406;2023-05-24T13:32:53;22.30;69.80
16643;DHT22;8435;52.184;5.406;2023-05-24T13:35:20;22.30;69.40
16643;DHT22;8435;52.184;5.406;2023-05-24T13:37:48;22.20;69.30
16643;DHT22;8435;52.184;5.406;2023-05-24T13:40:18;22.20;68.50
16643;DHT22;8435;52.184;5.406;2023-05-24T13:42:44;22.20;68.60
16643;DHT22;8435;52.184;5.406;2023-05-24T13:45:11;22.10;68.80
16643;DHT22;8435;52.184;5.406;2023-05-24T13:47:38;22.10;68.80
16643;DHT22;8435;52.184;5.406;2023-05-24T13:50:05;22.10;68.50
16643;DHT22;8435;52.184;5.406;2023-05-24T13:52:32;22.00;69.00
16643;DHT22;8435;52.184;5.406;2023-05-24T13:55:02;22.00;69.10
16643;DHT22;8435;52.184;5.406;2023-05-24T13:57:29;21.90;69.60
16643;DHT22;8435;52.184;5.406;2023-05-24T13:59:57;21.90;70.00
16643;DHT22;8435;52.184;5.406;2023-05-24T14:02:24;21.80;69.70
16643;DHT22;8435;52.184;5.406;2023-05-24T14:04:51;21.80;69.60
16643;DHT22;8435;52.184;5.406;2023-05-24T14:07:18;21.80;70.00
16643;DHT22;8435;52.184;5.406;2023-05-24T14:09:45;21.70;70.10
16643;DHT22;8435;52.184;5.406;2023-05-24T14:12:13;21.70;69.90
16643;DHT22;8435;52.184;5.406;2023-05-24T14:14:41;21.70;70.30
16643;DHT22;8435;52.184;5.406;2023-05-24T14:17:07;21.70;71.10
16643;DHT22;8435;52.184;5.406;2023-05-24T14:19:35;21.80;70.70
16643;DHT22;8435;52.184;5.406;2023-05-24T14:22:03;21.80;70.70
16643;DHT22;8435;52.184;5.406;2023-05-24T14:24:29;21.80;70.60
16643;DHT22;8435;52.184;5.406;2023-05-24T14:26:56;21.90;70.60
16643;DHT22;8435;52.184;5.406;2023-05-24T14:29:27;22.00;70.20
16643;DHT22;8435;52.184;5.406;2023-05-24T14:31:54;22.00;69.90
16643;DHT22;8435;52.184;5.406;2023-05-24T14:34:21;22.00;69.90
16643;DHT22;8435;52.184;5.406;2023-05-24T14:36:48;22.00;70.30
16643;DHT22;8435;52.184;5.406;2023-05-24T14:39:15;22.00;69.90
16643;DHT22;8435;52.184;5.406;2023-05-24T14:41:42;22.00;69.70
16643;DHT22;8435;52.184;5.406;2023-05-24T14:44:09;22.00;69.60
16643;DHT22;8435;52.184;5.406;2023-05-24T14:46:39;22.00;69.60
16643;DHT22;8435;52.184;5.406;2023-05-24T14:49:07;21.90;70.20
16643;DHT22;8435;52.184;5.406;2023-05-24T14:51:34;21.80;69.80
16643;DHT22;8435;52.184;5.406;2023-05-24T14:54:01;21.70;70.20
16643;DHT22;8435;52.184;5.406;2023-05-24T14:56:30;21.70;70.40
16643;DHT22;8435;52.184;5.406;2023-05-24T14:58:57;21.60;70.50
16643;DHT22;8435;52.184;5.406;2023-05-24T15:01:24;21.50;70.80
16643;DHT22;8435;52.184;5.406;2023-05-24T15:03:57;21.50;71.10
16643;DHT22;8435;52.184;5.406;2023-05-24T15:06:28;21.50;70.60
16643;DHT22;8435;52.184;5.406;2023-05-24T15:08:59;21.50;71.00
16643;DHT22;8435;52.184;5.406;2023-05-24T15:11:27;21.50;71.30
16643;DHT22;8435;52.184;5.406;2023-05-24T15:13:53;21.40;71.70
16643;DHT22;8435;52.184;5.406;2023-05-24T15:16:23;21.40;71.30
16643;DHT22;8435;52.184;5.406;2023-05-24T15:18:52;21.40;71.70
16643;DHT22;8435;52.184;5.406;2023-05-24T15:21:19;21.40;71.10
16643;DHT22;8435;52.184;5.406;2023-05-24T15:23:46;21.40;71.40
16643;DHT22;8435;52.184;5.406;2023-05-24T15:28:50;21.30;71.50
16643;DHT22;8435;52.184;5.406;2023-05-24T15:31:17;21.40;71.60
16643;DHT22;8435;52.184;5.406;2023-05-24T15:33:43;21.50;71.80
16643;DHT22;8435;52.184;5.406;2023-05-24T15:36:11;21.50;71.70
16643;DHT22;8435;52.184;5.406;2023-05-24T15:38:41;21.60;71.60
16643;DHT22;8435;52.184;5.406;2023-05-24T15:41:08;21.60;71.40
16643;DHT22;8435;52.184;5.406;2023-05-24T15:43:34;21.60;71.00
16643;DHT22;8435;52.184;5.406;2023-05-24T15:46:04;21.60;70.40
16643;DHT22;8435;52.184;5.406;2023-05-24T15:48:31;21.60;70.10
16643;DHT22;8435;52.184;5.406;2023-05-24T15:50:57;21.60;70.30
16643;DHT22;8435;52.184;5.406;2023-05-24T15:53:26;21.70;70.80